Terminal Aerodrome Forecast
Issued by NWS Jackson, MS

Home | Current Version | Previous Version | Text Only | Print | Product List | Glossary On
Versions: 1 2 3 4 5 6 7 8 9 10 11 12 13 14 15 16 17 18
316
FTUS44 KJAN 240348 AAD
TAFJAN
TAF AMD
KJAN 240348Z 2404/2424 19004KT P6SM OVC200
     FM240500 30007KT 3SM RA BR BKN040 OVC120
     FM240700 30005KT P6SM -RA BKN015 OVC025
     FM240900 26004KT 4SM BR OVC007
     FM241400 29006KT P6SM OVC015
     FM241900 27013G20KT P6SM BKN050=

USA.gov is the U.S. government's official web portal to all federal, state and local government web resources and services.